Houston, Pennsylvania
Current Conditions -  °F | °C
As of 9:35 AM on Sunday 23 Nov 2014 (Local Time) from KAFJ Reporting Station
Overcast Overcast  
Wind Chill: 55°   Ceiling: 9500
Heat Index: 55°   Visibility: 10mi
Dew Point: 32°   Wind: 6mph
Humidity: 41%   Direction: 190°S
Pressure: 30.11"   Gusts: NA
Location:  40.25°N, 80.21°W
Report Text: KAFJ 231435Z 19005KT 10SM OVC095 13/00 A3011 RMK AO1
Loading
Personal Weather Stations






























Interactive Weather Map New forecast layout! Learn more

10-Day Weather Forecast

Advertisements
Track Severe Weather on mobile